Weather observations for the past three days for
Red Wing - Red Wing Regional Airport
Imperial (Metric)
Date Time (cdt) Wind (mph) Vis. (mi.) Weather Sky Cond. Temperature (ºF) Relative Humidity Wind Chill (°F) Heat Index (°F) Pressure Precipitation (in)
Air Dwpt 6 hour altimeter (in) sea level (mb) 1 hr 3 hr 6 hr
Max. Min.
03 12:35 N 10 G 16 10.00 Fair CLR 69.8 33.8 27% 29.69 0.0
03 12:15 N 7 G 18 10.00 Fair CLR 69.8 33.8 27% 29.7 0.0
03 11:55 N 15 G 21 10.00 Fair CLR 68 33.8 28% 29.7 0.0
03 11:35 N 7 G 16 10.00 Fair CLR 66.2 33.8 30% 29.7 0.0
03 11:15 NE 5 10.00 Fair CLR 64.4 33.8 32% 29.7 0.0
03 10:55 NW 5 10.00 Fair CLR 64.4 33.8 32% 29.7 0.0
03 10:35 NW 8 10.00 Fair CLR 62.6 32 32% 29.7 0.0
03 10:15 NW 5 10.00 Fair CLR 62.6 32 32% 29.69 0.0
03 09:55 W 8 10.00 Fair CLR 62.6 32 32% 29.7 0.0
03 09:35 W 9 10.00 Fair CLR 62.6 32 32% 29.7 0.0
03 09:15 W 7 10.00 Fair CLR 60.8 32 34% 29.7 0.0
03 08:55 SW 8 10.00 Fair CLR 59 33.8 39% 29.69 0.0
03 08:35 SW 8 10.00 Fair CLR 57.2 32 39% 29.69 0.0
03 08:15 SW 7 10.00 Fair CLR 57.2 32 39% 29.7 0.0
03 07:55 SW 5 10.00 Fair CLR 57.2 32 39% 29.69 0.0
03 07:35 SW 7 10.00 Fair CLR 55.4 32 41% 29.69 0.0
03 07:15 SW 3 10.00 Fair CLR 55.4 33.8 44% 29.68 0.0
03 06:55 S 3 10.00 Fair CLR 53.6 33.8 47% 29.68 0.0
03 06:35 S 3 10.00 Fair CLR 53.6 32 44% 29.68 0.0
03 06:15 S 3 10.00 Fair CLR 53.6 32 44% 29.68 0.0
03 05:55 S 6 10.00 Fair CLR 53.6 32 44% 29.68 0.0
03 05:35 S 7 10.00 Fair CLR 55.4 30.2 38% 29.69 0.0
03 05:15 SW 6 10.00 Fair CLR 55.4 30.2 38% 29.69 0.0
03 04:55 S 9 G 17 10.00 Fair CLR 57.2 30.2 36% 29.69 0.0
03 04:35 SW 14 G 25 10.00 Partly Cloudy SCT100 57.2 28.4 33% 29.69 0.0
03 04:15 SW 14 G 24 10.00 Partly Cloudy SCT100 59 28.4 31% 29.69 0.0
03 03:55 SW 12 10.00 Partly Cloudy SCT100 59 28.4 31% 29.69 0.0
03 03:35 SW 8 10.00 Partly Cloudy SCT100 55.4 33.8 44% 29.7 0.0
03 03:15 SW 8 10.00 Partly Cloudy SCT100 55.4 33.8 44% 29.72 0.0
03 02:55 SW 7 10.00 Partly Cloudy SCT050 SCT070 SCT110 55.4 33.8 44% 29.72 0.0
03 02:35 SW 10 10.00 Light Rain SCT050 SCT070 BKN080 55.4 33.8 44% 29.74 0.0
03 02:15 SW 6 10.00 Partly Cloudy SCT080 57.2 30.2 36% 29.76 0.0
03 01:55 SW 7 10.00 Partly Cloudy SCT080 55.4 30.2 38% 29.76 0.0
03 01:35 S 9 10.00 Partly Cloudy SCT080 SCT110 57.2 32 39% 29.76 0.0
03 01:15 S 6 10.00 Partly Cloudy SCT090 SCT110 57.2 33.8 41% 29.77 0.0
03 00:55 S 5 10.00 Overcast OVC110 57.2 33.8 41% 29.78 0.0
03 00:35 S 5 10.00 Mostly Cloudy BKN110 57.2 33.8 41% 29.78 0.0
03 00:15 Calm 10.00 Mostly Cloudy BKN110 57.2 33.8 41% 29.79 0.0
02 23:55 Calm 10.00 Overcast OVC100 55.4 35.6 47% 29.79 0.0
02 23:35 SW 3 10.00 Overcast OVC110 59 33.8 39% 29.8 0.0
02 23:15 SW 8 10.00 Mostly Cloudy BKN100 59 33.8 39% 29.81 0.0
02 22:55 SW 5 10.00 Mostly Cloudy BKN110 59 33.8 39% 29.82 0.0
02 22:35 SW 5 10.00 Mostly Cloudy BKN100 59 33.8 39% 29.83 0.0
02 22:15 W 6 10.00 Partly Cloudy SCT100 60.8 32 34% 29.84 0.0
02 21:55 W 10 10.00 Partly Cloudy SCT110 60.8 32 34% 29.85 0.0
02 21:35 W 7 10.00 Mostly Cloudy BKN080 60.8 30.2 31% 29.85 0.0
02 21:15 W 5 10.00 Overcast OVC080 60.8 30.2 31% 29.86 0.0
02 20:55 W 6 10.00 Mostly Cloudy BKN080 60.8 30.2 31% 29.86 0.0
02 20:35 W 5 10.00 Mostly Cloudy BKN090 60.8 30.2 31% 29.85 0.0
02 20:15 SW 3 10.00 Overcast BKN090 OVC110 60.8 30.2 31% 29.85 0.0
02 19:55 Calm 10.00 Mostly Cloudy SCT090 BKN110 60.8 30.2 31% 29.85 0.0
02 19:35 Calm 10.00 Mostly Cloudy BKN110 62.6 28.4 27% 29.85 0.0
02 19:15 W 3 10.00 Partly Cloudy SCT110 62.6 26.6 25% 29.86 0.0
02 18:55 SW 7 10.00 Partly Cloudy SCT090 62.6 26.6 25% 29.86 0.0
02 18:35 W 7 10.00 Partly Cloudy SCT080 64.4 26.6 24% 29.87 0.0
02 18:15 SW 7 10.00 Partly Cloudy SCT120 62.6 26.6 25% 29.87 0.0
02 17:55 W 6 10.00 Partly Cloudy SCT110 64.4 26.6 24% 29.88 0.0
02 17:35 W 10 10.00 Partly Cloudy SCT110 64.4 26.6 24% 29.89 0.0
02 17:15 W 9 G 16 10.00 Partly Cloudy SCT110 64.4 24.8 22% 29.89 0.0
02 16:55 W 8 10.00 Mostly Cloudy BKN110 64.4 24.8 22% 29.9 0.0
02 16:35 W 7 G 17 10.00 Partly Cloudy SCT110 64.4 24.8 22% 29.91 0.0
02 16:15 W 14 10.00 Partly Cloudy SCT110 64.4 24.8 22% 29.92 0.0
02 15:55 W 10 G 18 10.00 Partly Cloudy SCT110 64.4 24.8 22% 29.93 0.0
02 15:35 W 9 10.00 Partly Cloudy SCT110 62.6 24.8 24% 29.94 0.0
02 15:15 SW 10 G 18 10.00 Fair CLR 62.6 24.8 24% 29.95 0.0
02 14:55 W 12 10.00 Fair CLR 62.6 23 22% 29.96 0.0
02 14:35 W 8 10.00 Fair CLR 62.6 23 22% 29.97 0.0
02 14:15 SW 10 G 18 10.00 Fair CLR 60.8 23 23% 29.98 0.0
02 13:55 W 9 10.00 Fair CLR 60.8 21.2 22% 29.99 0.0
02 13:35 W 12 G 18 10.00 Partly Cloudy SCT090 60.8 23 23% 30 0.0
02 13:15 W 10 G 18 10.00 Partly Cloudy SCT090 60.8 21.2 22% 30 0.0
02 12:55 W 7 G 22 10.00 Fair CLR 59 21.2 23% 30.01 0.0
02 12:35 W 13 10.00 Fair CLR 60.8 21.2 22% 30.02 0.0
02 12:15 NW 9 G 17 10.00 Fair CLR 57.2 21.2 25% 30.03 0.0
02 11:55 Calm 10.00 Fair CLR 57.2 21.2 25% 30.04 0.0
02 11:35 W 13 G 21 10.00 Fair CLR 57.2 21.2 25% 30.05 0.0
02 11:15 NW 9 G 18 10.00 Partly Cloudy SCT110 57.2 21.2 25% 30.05 0.0
02 10:55 W 8 10.00 Fair CLR 55.4 23 28% 30.06 0.0
02 10:35 W 9 10.00 Fair CLR 55.4 23 28% 30.06 0.0
02 10:15 W 7 10.00 Fair CLR 55.4 24.8 31% 30.07 0.0
02 09:55 NW 9 10.00 Fair CLR 53.6 24.8 33% 30.07 0.0
02 09:35 W 7 10.00 Fair CLR 51.8 26.6 38% 30.07 0.0
02 09:15 NW 6 10.00 Fair CLR 50 28.4 43% 48 30.08 0.0
02 08:55 W 5 10.00 Fair CLR 48.2 28.4 46% 47 30.08 0.0
02 08:35 W 5 10.00 Fair CLR 46.4 28.4 50% 45 30.08 0.0
02 08:15 W 6 10.00 Fair CLR 44.6 28.4 53% 42 30.08 0.0
02 07:55 W 3 10.00 Fair CLR 42.8 28.4 57% 30.08 0.0
02 07:35 W 3 10.00 Fair CLR 41 28.4 61% 30.08 0.0
02 07:15 Calm 10.00 Fair CLR 37.4 30.2 75% 30.08 0.0
02 06:55 Calm 10.00 Fair CLR 33.8 28.4 81% 30.08 0.0
02 06:35 Calm 10.00 Fair CLR 30.2 26.6 86% 30.08 0.0
02 06:15 Calm 10.00 Fair CLR 30.2 26.6 86% 30.07 0.0
02 05:55 Calm 10.00 Fair CLR 30.2 26.6 86% 30.07 0.0
02 05:35 Calm 10.00 Fair CLR 30.2 26.6 86% 30.07 0.0
02 05:15 Calm 10.00 Fair CLR 30.2 26.6 86% 30.07 0.0
02 04:55 Calm 10.00 Fair CLR 30.2 26.6 86% 30.08 0.0
02 04:35 Calm 10.00 Fair CLR 30.2 26.6 86% 30.08 0.0
02 04:15 Calm 10.00 Fair CLR 30.2 24.8 80% 30.08 0.0
02 03:55 Calm 10.00 Fair CLR 30.2 26.6 86% 30.08 0.0
02 03:35 Calm 10.00 Fair CLR 30.2 26.6 86% 30.07 0.0
02 03:15 Calm 10.00 Fair CLR 30.2 26.6 86% 30.07 0.0
02 02:55 Calm 10.00 Fair CLR 30.2 26.6 86% 30.07 0.0
02 02:35 Calm 10.00 Fair CLR 32 26.6 80% 30.07 0.0
02 02:15 Calm 10.00 Fair CLR 33.8 26.6 75% 30.08 0.0
02 01:55 Calm 10.00 Fair CLR 33.8 28.4 81% 30.08 0.0
02 01:35 Calm 10.00 Partly Cloudy SCT090 33.8 28.4 81% 30.09 0.0
02 01:15 Calm 10.00 Mostly Cloudy BKN090 33.8 28.4 81% 30.09 0.0
02 00:55 Calm 10.00 Partly Cloudy SCT090 35.6 28.4 75% 30.08 0.0
02 00:35 Calm 10.00 Mostly Cloudy BKN090 35.6 26.6 70% 30.08 0.0
02 00:15 Calm 10.00 Overcast OVC100 35.6 28.4 75% 30.08 0.0
01 23:55 Calm 10.00 Overcast OVC100 37.4 28.4 70% 30.08 0.0
01 23:35 Calm 10.00 Overcast OVC100 37.4 26.6 65% 30.08 0.0
01 23:15 Calm 10.00 Mostly Cloudy BKN100 35.6 26.6 70% 30.08 0.0
01 22:55 Calm 10.00 Fair CLR 37.4 26.6 65% 30.08 0.0
01 22:35 NW 3 10.00 Fair CLR 37.4 26.6 65% 30.09 0.0
01 22:15 Calm 10.00 Fair CLR 37.4 26.6 65% 30.09 0.0
01 21:55 N 3 10.00 Fair CLR 39.2 26.6 61% 30.08 0.0
01 21:35 Calm 10.00 Fair CLR 41 24.8 53% 30.08 0.0
01 21:15 NW 3 10.00 Fair CLR 39.2 26.6 61% 30.08 0.0
01 20:55 NW 3 10.00 Fair CLR 41 26.6 57% 30.07 0.0
01 20:35 Calm 10.00 Fair CLR 44.6 26.6 49% 30.07 0.0
01 20:15 Calm 10.00 Fair CLR 46.4 21.2 37% 30.06 0.0
01 19:55 Calm 10.00 Partly Cloudy SCT090 48.2 19.4 32% 30.06 0.0
01 19:35 N 3 10.00 Overcast OVC090 51.8 17.6 26% 30.06 0.0
01 19:15 N 3 10.00 Mostly Cloudy BKN090 51.8 17.6 26% 30.06 0.0
01 18:55 N 5 10.00 Mostly Cloudy BKN080 51.8 17.6 26% 30.06 0.0
01 18:35 N 3 10.00 Overcast OVC080 51.8 17.6 26% 30.06 0.0
01 18:15 NW 9 10.00 Overcast OVC080 51.8 17.6 26% 30.05 0.0
01 17:55 Calm 10.00 Partly Cloudy SCT080 53.6 17.6 24% 30.05 0.0
01 17:35 NE 7 10.00 Partly Cloudy SCT080 51.8 17.6 26% 30.06 0.0
01 17:15 N 6 10.00 Partly Cloudy SCT080 51.8 17.6 26% 30.06 0.0
01 16:55 N 8 10.00 Partly Cloudy SCT080 51.8 17.6 26% 30.06 0.0
01 16:35 N 8 10.00 Partly Cloudy SCT080 53.6 15.8 22% 30.05 0.0
01 16:15 NW 6 10.00 Partly Cloudy SCT070 53.6 15.8 22% 30.05 0.0
01 15:55 N 12 G 16 10.00 Partly Cloudy SCT070 53.6 17.6 24% 30.06 0.0
01 15:35 N 10 10.00 Partly Cloudy SCT070 53.6 15.8 22% 30.06 0.0
01 15:15 NE 7 10.00 Mostly Cloudy BKN070 53.6 17.6 24% 30.06 0.0
01 14:55 N 8 10.00 Mostly Cloudy BKN070 53.6 17.6 24% 30.06 0.0
01 14:35 N 6 10.00 Mostly Cloudy BKN070 53.6 17.6 24% 30.06 0.0
01 14:15 N 7 10.00 Mostly Cloudy BKN070 51.8 17.6 26% 30.06 0.0
01 13:55 NW 9 10.00 Partly Cloudy SCT070 50 17.6 28% 47 30.07 0.0
01 13:35 N 10 10.00 Partly Cloudy SCT070 51.8 17.6 26% 30.07 0.0
01 13:15 NW 8 G 17 10.00 Partly Cloudy SCT070 51.8 15.8 24% 30.07 0.0
01 12:55 NE 7 10.00 Fair CLR 51.8 15.8 24% 30.07 0.0
01 12:35 N 10 G 18 10.00 Fair CLR 51.8 17.6 26% 30.08 0.0
01 12:15 NE 9 G 18 10.00 Fair CLR 50 15.8 26% 47 30.08 0.0
01 11:55 N 9 G 20 10.00 Fair CLR 48.2 17.6 29% 45 30.08 0.0
01 11:35 N 12 G 18 10.00 Fair CLR 48.2 17.6 29% 44 30.08 0.0
01 11:15 N 8 G 18 10.00 Fair CLR 48.2 17.6 29% 45 30.08 0.0
01 10:55 N 13 G 16 10.00 Partly Cloudy SCT070 46.4 17.6 32% 41 30.08 0.0
01 10:35 N 15 10.00 Partly Cloudy SCT070 46.4 17.6 32% 41 30.08 0.0
01 10:15 NE 14 G 18 10.00 Partly Cloudy SCT070 46.4 17.6 32% 41 30.08 0.0
01 09:55 N 13 G 16 10.00 Partly Cloudy SCT070 46.4 17.6 32% 41 30.08 0.0
01 09:35 N 9 10.00 Partly Cloudy SCT070 44.6 17.6 34% 40 30.08 0.0
01 09:15 NE 8 10.00 Partly Cloudy SCT070 44.6 19.4 37% 41 30.08 0.0
01 08:55 NE 9 10.00 Fair CLR 44.6 21.2 39% 40 30.07 0.0
01 08:35 NE 10 10.00 Partly Cloudy SCT080 42.8 21.2 42% 38 30.07 0.0
01 08:15 NE 8 10.00 Mostly Cloudy BKN080 42.8 23 46% 39 30.07 0.0
01 07:55 NE 7 10.00 Mostly Cloudy BKN080 39.2 23 52% 35 30.07 0.0
01 07:35 NE 3 10.00 Mostly Cloudy BKN080 39.2 26.6 61% 30.06 0.0
01 07:15 NE 5 10.00 Overcast OVC080 39.2 26.6 61% 36 30.06 0.0
01 06:55 Calm 10.00 Overcast OVC080 39.2 26.6 61% 30.05 0.0
01 06:35 NE 5 10.00 Mostly Cloudy BKN080 37.4 26.6 65% 34 30.05 0.0
01 06:15 N 3 10.00 Partly Cloudy SCT080 37.4 24.8 60% 30.04 0.0
01 05:55 NE 6 10.00 Partly Cloudy SCT090 37.4 24.8 60% 33 30.04 0.0
01 05:35 NE 6 10.00 Overcast OVC090 37.4 24.8 60% 33 30.03 0.0
01 05:15 NE 6 10.00 Overcast OVC090 39.2 24.8 56% 36 30.03 0.0
01 04:55 NE 6 10.00 Overcast OVC090 39.2 24.8 56% 36 30.03 0.0
01 04:35 NE 6 10.00 Overcast OVC090 39.2 24.8 56% 36 30.03 0.0
01 04:15 NE 7 10.00 Overcast OVC090 39.2 24.8 56% 35 30.03 0.0
01 03:55 NE 7 10.00 Overcast SCT070 OVC090 39.2 26.6 61% 35 30.03 0.0
01 03:35 NE 6 10.00 Overcast BKN070 OVC090 39.2 26.6 61% 36 30.03 0.0
01 03:15 NE 6 10.00 Overcast OVC090 39.2 26.6 61% 36 30.03 0.0
01 02:55 E 7 10.00 Overcast OVC090 39.2 26.6 61% 35 30.02 0.0
01 02:35 E 6 10.00 Overcast OVC090 39.2 26.6 61% 36 30.02 0.0
01 02:15 E 3 10.00 Overcast OVC090 39.2 26.6 61% 30.02 0.0
01 01:55 Calm 10.00 Overcast OVC090 39.2 26.6 61% 30.02 0.0
01 01:35 E 3 10.00 Overcast OVC090 37.4 26.6 65% 30.02 0.0
01 01:15 E 5 10.00 Mostly Cloudy BKN090 35.6 26.6 70% 32 30.02 0.0
01 00:55 N 3 10.00 Mostly Cloudy BKN090 35.6 28.4 75% 30.02 0.0
01 00:35 Calm 10.00 Mostly Cloudy BKN090 33.8 28.4 81% 30.02 0.0
01 00:15 N 3 10.00 Partly Cloudy SCT080 33.8 28.4 81% 30.02 0.0
30 23:55 N 3 10.00 Fair CLR 33.8 28.4 81% 30.01 0.0
30 23:35 Calm 10.00 Fair CLR 33.8 28.4 81% 30.02 0.0
30 23:15 Calm 10.00 Fair CLR 33.8 28.4 81% 30.01 0.0
30 22:55 Calm 10.00 Fair CLR 35.6 28.4 75% 30.01 0.0
30 22:35 Calm 10.00 Fair CLR 35.6 28.4 75% 30.01 0.0
30 22:15 Calm 10.00 Fair CLR 37.4 28.4 70% 30.01 0.0
30 21:55 Calm 10.00 Partly Cloudy SCT080 39.2 26.6 61% 30.01 0.0
30 21:35 Calm 10.00 Mostly Cloudy BKN080 37.4 28.4 70% 30.01 0.0
30 21:15 Calm 10.00 Fair CLR 39.2 26.6 61% 30.01 0.0
30 20:55 Calm 10.00 Fair CLR 41 26.6 57% 30.01 0.0
30 20:35 Calm 10.00 Fair CLR 42.8 28.4 57% 30 0.0
30 20:15 Calm 10.00 Fair CLR 44.6 24.8 46% 30 0.0
30 19:55 NE 6 10.00 Partly Cloudy SCT070 46.4 23 40% 44 30 0.0
30 19:35 N 5 10.00 Mostly Cloudy BKN070 48.2 19.4 32% 47 29.99 0.0
30 19:15 N 3 10.00 Overcast OVC070 48.2 21.2 34% 29.99 0.0
30 18:55 N 6 10.00 Overcast OVC070 48.2 21.2 34% 46 29.99 0.0
30 18:35 N 6 10.00 Overcast OVC070 50 21.2 32% 48 29.99 0.0
30 18:15 N 7 10.00 Mostly Cloudy BKN070 50 21.2 32% 48 29.99 0.0
30 17:55 N 9 10.00 Mostly Cloudy BKN060 51.8 21.2 30% 29.99 0.0
30 17:35 NE 7 10.00 Mostly Cloudy BKN060 51.8 21.2 30% 29.99 0.0
30 17:15 N 7 10.00 Partly Cloudy SCT060 50 21.2 32% 48 30 0.0
30 16:55 N 8 10.00 Partly Cloudy SCT060 48.2 21.2 34% 45 30 0.0
30 16:35 W 7 10.00 Partly Cloudy SCT060 50 21.2 32% 48 30 0.0
30 16:15 N 7 10.00 Partly Cloudy SCT060 48.2 21.2 34% 46 30.01 0.0
30 15:55 N 3 10.00 Mostly Cloudy BKN050 48.2 21.2 34% 30.01 0.0
30 15:35 NW 7 G 16 10.00 Partly Cloudy SCT050 48.2 21.2 34% 46 30.02 0.0
30 15:15 N 10 G 18 10.00 Partly Cloudy SCT050 51.8 23 32% 30.02 0.0
30 14:55 N 9 G 20 10.00 Partly Cloudy SCT049 48.2 23 37% 45 30.03 0.0
30 14:35 NW 8 G 18 10.00 Partly Cloudy SCT049 48.2 23 37% 45 30.03 0.0
30 14:15 N 9 10.00 Partly Cloudy SCT049 48.2 23 37% 45 30.03 0.0
30 13:55 NW 7 G 16 10.00 Partly Cloudy SCT049 46.4 23 40% 43 30.04 0.0
30 13:35 N 8 G 16 10.00 Mostly Cloudy BKN049 46.4 23 40% 43 30.04 0.0
30 13:15 N 13 10.00 Mostly Cloudy BKN049 46.4 24.8 43% 41 30.04 0.0
30 12:55 NW 9 10.00 Mostly Cloudy BKN049 46.4 24.8 43% 42 30.04 0.0
Date Time (cdt) Wind (mph) Vis. (mi.) Weather Sky Cond. Air Dwpt Max. Min. Relative Humidity Wind Chill (°F) Heat Index (°F) altimeter (in) sea level (mb) 1 hr 3 hr 6 hr
6 hour
Temperature (ºF) Pressure Precipitation (in)